Clearfield, Utah
Current Conditions -  °F | °C
As of 3:58 PM on Tuesday 27 Jan 2015 (Local Time) from KHIF Reporting Station
Broken Clouds Broken Clouds  
Wind Chill: 47°   Ceiling: 5500
Heat Index: 49°   Visibility: 10mi
Dew Point: 29°   Wind: 7mph
Humidity: 46%   Direction: 330°NNW
Pressure: 30.16"   Gusts: NA
Location:  41.11°N, 112.02°W
Report Text: KHIF 272258Z 33006KT 10SM BKN055 BKN095 10/M01 A3016 RMK AO2A SLP204 T00971015
Loading
Personal Weather Stations






























Interactive Weather Map New forecast layout! Learn more

10-Day Weather Forecast

Advertisements
Track Severe Weather on mobile